sensor_id;sensor_type;location;lat;lon;timestamp;P1;durP1;ratioP1;P2;durP2;ratioP2
65407;SDS011;52017;51.230;-2.322;2022-12-20T00:02:44;16.27;;;3.30;;
65407;SDS011;52017;51.230;-2.322;2022-12-20T00:06:55;19.40;;;4.50;;
65407;SDS011;52017;51.230;-2.322;2022-12-20T00:11:21;21.67;;;3.73;;
65407;SDS011;52017;51.230;-2.322;2022-12-20T00:15:17;20.57;;;4.30;;
65407;SDS011;52017;51.230;-2.322;2022-12-20T00:19:13;19.60;;;4.50;;
65407;SDS011;52017;51.230;-2.322;2022-12-20T00:22:57;24.77;;;5.37;;
65407;SDS011;52017;51.230;-2.322;2022-12-20T00:26:40;26.00;;;4.70;;
65407;SDS011;52017;51.230;-2.322;2022-12-20T00:34:56;16.63;;;2.88;;
65407;SDS011;52017;51.230;-2.322;2022-12-20T00:38:39;13.32;;;2.70;;
65407;SDS011;52017;51.230;-2.322;2022-12-20T00:42:53;9.57;;;2.47;;
65407;SDS011;52017;51.230;-2.322;2022-12-20T00:46:40;12.50;;;1.80;;
65407;SDS011;52017;51.230;-2.322;2022-12-20T00:50:45;7.40;;;1.70;;
65407;SDS011;52017;51.230;-2.322;2022-12-20T00:54:29;8.80;;;2.00;;
65407;SDS011;52017;51.230;-2.322;2022-12-20T00:58:13;10.53;;;2.20;;
65407;SDS011;52017;51.230;-2.322;2022-12-20T01:01:58;15.17;;;2.70;;
65407;SDS011;52017;51.230;-2.322;2022-12-20T01:05:55;23.07;;;3.47;;
65407;SDS011;52017;51.230;-2.322;2022-12-20T01:13:53;23.37;;;4.33;;
65407;SDS011;52017;51.230;-2.322;2022-12-20T01:17:37;22.20;;;4.00;;
65407;SDS011;52017;51.230;-2.322;2022-12-20T01:21:25;19.00;;;3.27;;
65407;SDS011;52017;51.230;-2.322;2022-12-20T01:25:08;24.57;;;3.90;;
65407;SDS011;52017;51.230;-2.322;2022-12-20T01:32:38;15.33;;;4.30;;
65407;SDS011;52017;51.230;-2.322;2022-12-20T01:36:26;16.93;;;3.33;;
65407;SDS011;52017;51.230;-2.322;2022-12-20T01:40:12;17.13;;;3.70;;
65407;SDS011;52017;51.230;-2.322;2022-12-20T01:43:59;18.03;;;3.63;;
65407;SDS011;52017;51.230;-2.322;2022-12-20T01:48:02;28.30;;;4.27;;
65407;SDS011;52017;51.230;-2.322;2022-12-20T01:51:54;24.10;;;4.97;;
65407;SDS011;52017;51.230;-2.322;2022-12-20T01:55:49;26.77;;;5.43;;
65407;SDS011;52017;51.230;-2.322;2022-12-20T01:59:52;22.07;;;3.67;;
65407;SDS011;52017;51.230;-2.322;2022-12-20T02:03:42;16.57;;;2.93;;
65407;SDS011;52017;51.230;-2.322;2022-12-20T02:07:40;18.93;;;3.27;;
65407;SDS011;52017;51.230;-2.322;2022-12-20T02:20:02;7.80;;;2.10;;
65407;SDS011;52017;51.230;-2.322;2022-12-20T02:45:37;6.40;;;1.13;;
65407;SDS011;52017;51.230;-2.322;2022-12-20T02:50:21;5.63;;;1.03;;
65407;SDS011;52017;51.230;-2.322;2022-12-20T02:54:56;7.87;;;1.73;;
65407;SDS011;52017;51.230;-2.322;2022-12-20T03:03:14;5.43;;;1.40;;
65407;SDS011;52017;51.230;-2.322;2022-12-20T03:11:21;1.47;;;0.33;;
65407;SDS011;52017;51.230;-2.322;2022-12-20T03:15:14;0.70;;;0.30;;
65407;SDS011;52017;51.230;-2.322;2022-12-20T03:18:58;1.13;;;0.30;;
65407;SDS011;52017;51.230;-2.322;2022-12-20T03:23:00;0.63;;;0.40;;
65407;SDS011;52017;51.230;-2.322;2022-12-20T03:26:44;0.60;;;0.30;;
65407;SDS011;52017;51.230;-2.322;2022-12-20T03:30:28;0.40;;;0.30;;
65407;SDS011;52017;51.230;-2.322;2022-12-20T03:34:21;0.30;;;0.30;;
65407;SDS011;52017;51.230;-2.322;2022-12-20T03:38:13;1.03;;;0.30;;
65407;SDS011;52017;51.230;-2.322;2022-12-20T03:42:06;0.87;;;0.30;;
65407;SDS011;52017;51.230;-2.322;2022-12-20T03:45:49;0.47;;;0.33;;
65407;SDS011;52017;51.230;-2.322;2022-12-20T03:49:41;0.33;;;0.30;;
65407;SDS011;52017;51.230;-2.322;2022-12-20T03:53:26;0.30;;;0.30;;
65407;SDS011;52017;51.230;-2.322;2022-12-20T03:57:13;0.30;;;0.30;;
65407;SDS011;52017;51.230;-2.322;2022-12-20T04:01:22;0.77;;;0.40;;
65407;SDS011;52017;51.230;-2.322;2022-12-20T04:05:29;0.33;;;0.30;;
65407;SDS011;52017;51.230;-2.322;2022-12-20T04:09:17;1.27;;;0.40;;
65407;SDS011;52017;51.230;-2.322;2022-12-20T04:13:09;0.67;;;0.40;;
65407;SDS011;52017;51.230;-2.322;2022-12-20T04:16:56;1.67;;;0.50;;
65407;SDS011;52017;51.230;-2.322;2022-12-20T04:20:51;0.77;;;0.40;;
65407;SDS011;52017;51.230;-2.322;2022-12-20T04:24:50;1.13;;;0.40;;
65407;SDS011;52017;51.230;-2.322;2022-12-20T04:28:43;0.40;;;0.30;;
65407;SDS011;52017;51.230;-2.322;2022-12-20T04:32:34;0.50;;;0.40;;
65407;SDS011;52017;51.230;-2.322;2022-12-20T04:36:30;0.97;;;0.50;;
65407;SDS011;52017;51.230;-2.322;2022-12-20T04:40:31;0.60;;;0.37;;
65407;SDS011;52017;51.230;-2.322;2022-12-20T04:45:28;0.83;;;0.53;;
65407;SDS011;52017;51.230;-2.322;2022-12-20T04:49:11;1.37;;;0.50;;
65407;SDS011;52017;51.230;-2.322;2022-12-20T04:52:57;1.60;;;0.63;;
65407;SDS011;52017;51.230;-2.322;2022-12-20T04:57:09;0.80;;;0.60;;
65407;SDS011;52017;51.230;-2.322;2022-12-20T05:00:52;4.27;;;0.60;;
65407;SDS011;52017;51.230;-2.322;2022-12-20T05:04:41;1.77;;;0.60;;
65407;SDS011;52017;51.230;-2.322;2022-12-20T05:09:15;2.27;;;0.80;;
65407;SDS011;52017;51.230;-2.322;2022-12-20T05:12:59;3.13;;;1.03;;
65407;SDS011;52017;51.230;-2.322;2022-12-20T05:16:50;3.43;;;0.90;;
65407;SDS011;52017;51.230;-2.322;2022-12-20T05:20:35;4.57;;;1.43;;
65407;SDS011;52017;51.230;-2.322;2022-12-20T05:25:19;3.83;;;1.20;;
65407;SDS011;52017;51.230;-2.322;2022-12-20T05:29:22;3.97;;;1.03;;
65407;SDS011;52017;51.230;-2.322;2022-12-20T05:37:29;5.53;;;1.50;;
65407;SDS011;52017;51.230;-2.322;2022-12-20T05:41:37;7.07;;;1.60;;
65407;SDS011;52017;51.230;-2.322;2022-12-20T05:45:52;6.40;;;1.33;;
65407;SDS011;52017;51.230;-2.322;2022-12-20T05:54:13;6.43;;;1.40;;
65407;SDS011;52017;51.230;-2.322;2022-12-20T05:58:00;7.60;;;1.90;;
65407;SDS011;52017;51.230;-2.322;2022-12-20T06:02:01;8.32;;;1.63;;
65407;SDS011;52017;51.230;-2.322;2022-12-20T06:06:17;7.72;;;1.50;;
65407;SDS011;52017;51.230;-2.322;2022-12-20T06:10:33;6.37;;;1.57;;
65407;SDS011;52017;51.230;-2.322;2022-12-20T06:14:42;8.07;;;1.33;;
65407;SDS011;52017;51.230;-2.322;2022-12-20T06:19:07;5.80;;;1.30;;
65407;SDS011;52017;51.230;-2.322;2022-12-20T06:23:01;6.43;;;2.17;;
65407;SDS011;52017;51.230;-2.322;2022-12-20T06:26:44;9.93;;;2.23;;
65407;SDS011;52017;51.230;-2.322;2022-12-20T06:30:29;8.33;;;1.87;;
65407;SDS011;52017;51.230;-2.322;2022-12-20T06:34:14;12.20;;;3.03;;
65407;SDS011;52017;51.230;-2.322;2022-12-20T06:38:01;8.67;;;2.03;;
65407;SDS011;52017;51.230;-2.322;2022-12-20T06:41:43;6.80;;;2.03;;
65407;SDS011;52017;51.230;-2.322;2022-12-20T06:45:26;7.80;;;1.90;;
65407;SDS011;52017;51.230;-2.322;2022-12-20T06:49:12;11.77;;;1.97;;
65407;SDS011;52017;51.230;-2.322;2022-12-20T06:52:55;8.00;;;2.20;;
65407;SDS011;52017;51.230;-2.322;2022-12-20T06:56:39;7.10;;;2.07;;
65407;SDS011;52017;51.230;-2.322;2022-12-20T07:00:22;8.20;;;1.77;;
65407;SDS011;52017;51.230;-2.322;2022-12-20T07:04:05;7.33;;;2.00;;
65407;SDS011;52017;51.230;-2.322;2022-12-20T07:07:56;8.80;;;1.90;;
65407;SDS011;52017;51.230;-2.322;2022-12-20T07:11:43;9.67;;;2.30;;
65407;SDS011;52017;51.230;-2.322;2022-12-20T07:15:28;8.27;;;2.20;;
65407;SDS011;52017;51.230;-2.322;2022-12-20T07:19:19;8.10;;;2.00;;
65407;SDS011;52017;51.230;-2.322;2022-12-20T07:23:02;15.63;;;3.27;;
65407;SDS011;52017;51.230;-2.322;2022-12-20T07:26:46;13.10;;;2.53;;
65407;SDS011;52017;51.230;-2.322;2022-12-20T07:30:35;12.07;;;1.90;;
65407;SDS011;52017;51.230;-2.322;2022-12-20T07:34:18;12.07;;;2.03;;
65407;SDS011;52017;51.230;-2.322;2022-12-20T07:38:02;14.03;;;2.87;;
65407;SDS011;52017;51.230;-2.322;2022-12-20T07:41:54;14.60;;;2.63;;
65407;SDS011;52017;51.230;-2.322;2022-12-20T07:45:40;9.43;;;2.37;;
65407;SDS011;52017;51.230;-2.322;2022-12-20T07:49:24;14.60;;;3.10;;
65407;SDS011;52017;51.230;-2.322;2022-12-20T07:53:10;12.97;;;3.00;;
65407;SDS011;52017;51.230;-2.322;2022-12-20T07:57:12;17.83;;;2.83;;
65407;SDS011;52017;51.230;-2.322;2022-12-20T08:01:01;6.13;;;2.20;;
65407;SDS011;52017;51.230;-2.322;2022-12-20T08:08:33;9.73;;;2.60;;
65407;SDS011;52017;51.230;-2.322;2022-12-20T08:12:25;16.23;;;2.60;;
65407;SDS011;52017;51.230;-2.322;2022-12-20T08:16:35;12.10;;;3.00;;
65407;SDS011;52017;51.230;-2.322;2022-12-20T08:20:35;9.70;;;2.47;;
65407;SDS011;52017;51.230;-2.322;2022-12-20T08:24:18;9.90;;;2.50;;
65407;SDS011;52017;51.230;-2.322;2022-12-20T08:28:04;9.97;;;2.87;;
65407;SDS011;52017;51.230;-2.322;2022-12-20T08:39:19;10.10;;;2.43;;
65407;SDS011;52017;51.230;-2.322;2022-12-20T08:43:07;14.67;;;3.37;;
65407;SDS011;52017;51.230;-2.322;2022-12-20T08:47:09;12.87;;;2.70;;
65407;SDS011;52017;51.230;-2.322;2022-12-20T08:50:55;14.20;;;3.07;;
65407;SDS011;52017;51.230;-2.322;2022-12-20T08:54:47;11.83;;;2.87;;
65407;SDS011;52017;51.230;-2.322;2022-12-20T08:58:33;18.00;;;3.57;;
65407;SDS011;52017;51.230;-2.322;2022-12-20T09:02:18;12.37;;;2.23;;
65407;SDS011;52017;51.230;-2.322;2022-12-20T09:09:54;10.63;;;2.67;;
65407;SDS011;52017;51.230;-2.322;2022-12-20T09:13:40;12.23;;;2.93;;
65407;SDS011;52017;51.230;-2.322;2022-12-20T09:17:27;13.80;;;3.67;;
65407;SDS011;52017;51.230;-2.322;2022-12-20T09:21:14;11.70;;;3.97;;
65407;SDS011;52017;51.230;-2.322;2022-12-20T09:25:00;20.67;;;3.60;;
65407;SDS011;52017;51.230;-2.322;2022-12-20T09:28:43;13.63;;;3.17;;
65407;SDS011;52017;51.230;-2.322;2022-12-20T09:32:26;14.40;;;2.20;;
65407;SDS011;52017;51.230;-2.322;2022-12-20T09:36:11;13.93;;;2.67;;
65407;SDS011;52017;51.230;-2.322;2022-12-20T09:40:02;12.03;;;1.93;;
65407;SDS011;52017;51.230;-2.322;2022-12-20T09:43:45;15.17;;;3.07;;
65407;SDS011;52017;51.230;-2.322;2022-12-20T09:47:29;11.93;;;3.00;;
65407;SDS011;52017;51.230;-2.322;2022-12-20T09:59:42;13.10;;;2.50;;
65407;SDS011;52017;51.230;-2.322;2022-12-20T10:03:31;10.60;;;2.83;;
65407;SDS011;52017;51.230;-2.322;2022-12-20T10:07:47;15.53;;;2.83;;
65407;SDS011;52017;51.230;-2.322;2022-12-20T10:15:53;14.43;;;2.90;;
65407;SDS011;52017;51.230;-2.322;2022-12-20T10:19:58;19.00;;;4.37;;
65407;SDS011;52017;51.230;-2.322;2022-12-20T10:24:19;13.23;;;3.83;;
65407;SDS011;52017;51.230;-2.322;2022-12-20T10:28:15;12.10;;;2.60;;
65407;SDS011;52017;51.230;-2.322;2022-12-20T10:32:04;15.53;;;2.93;;
65407;SDS011;52017;51.230;-2.322;2022-12-20T10:53:37;15.60;;;4.73;;
65407;SDS011;52017;51.230;-2.322;2022-12-20T10:57:45;20.53;;;3.87;;
65407;SDS011;52017;51.230;-2.322;2022-12-20T11:01:33;17.27;;;4.30;;
65407;SDS011;52017;51.230;-2.322;2022-12-20T11:05:23;17.17;;;3.13;;
65407;SDS011;52017;51.230;-2.322;2022-12-20T11:09:36;11.13;;;2.60;;
65407;SDS011;52017;51.230;-2.322;2022-12-20T11:13:33;18.53;;;3.57;;
65407;SDS011;52017;51.230;-2.322;2022-12-20T11:17:40;25.03;;;4.30;;
65407;SDS011;52017;51.230;-2.322;2022-12-20T11:30:04;16.97;;;3.87;;
65407;SDS011;52017;51.230;-2.322;2022-12-20T11:34:08;26.50;;;3.77;;
65407;SDS011;52017;51.230;-2.322;2022-12-20T11:42:02;21.10;;;4.47;;
65407;SDS011;52017;51.230;-2.322;2022-12-20T11:46:00;27.33;;;4.83;;
65407;SDS011;52017;51.230;-2.322;2022-12-20T11:53:55;26.80;;;4.90;;
65407;SDS011;52017;51.230;-2.322;2022-12-20T12:02:03;19.83;;;3.70;;
65407;SDS011;52017;51.230;-2.322;2022-12-20T12:06:46;19.65;;;4.70;;
65407;SDS011;52017;51.230;-2.322;2022-12-20T12:14:32;18.05;;;4.63;;
65407;SDS011;52017;51.230;-2.322;2022-12-20T12:18:33;19.60;;;5.22;;
65407;SDS011;52017;51.230;-2.322;2022-12-20T12:22:19;19.20;;;4.65;;
65407;SDS011;52017;51.230;-2.322;2022-12-20T12:26:14;20.02;;;4.50;;
65407;SDS011;52017;51.230;-2.322;2022-12-20T12:30:10;21.27;;;5.47;;
65407;SDS011;52017;51.230;-2.322;2022-12-20T12:34:04;25.25;;;4.40;;
65407;SDS011;52017;51.230;-2.322;2022-12-20T12:37:54;19.92;;;5.80;;
65407;SDS011;52017;51.230;-2.322;2022-12-20T12:46:50;18.65;;;4.90;;
65407;SDS011;52017;51.230;-2.322;2022-12-20T12:50:26;21.38;;;5.05;;
65407;SDS011;52017;51.230;-2.322;2022-12-20T12:54:15;21.83;;;4.22;;
65407;SDS011;52017;51.230;-2.322;2022-12-20T12:57:58;21.27;;;5.72;;
65407;SDS011;52017;51.230;-2.322;2022-12-20T13:05:54;20.58;;;4.97;;
65407;SDS011;52017;51.230;-2.322;2022-12-20T13:09:37;21.13;;;5.55;;
65407;SDS011;52017;51.230;-2.322;2022-12-20T13:13:22;22.98;;;4.75;;
65407;SDS011;52017;51.230;-2.322;2022-12-20T13:21:15;17.92;;;5.05;;
65407;SDS011;52017;51.230;-2.322;2022-12-20T13:25:27;22.80;;;5.13;;
65407;SDS011;52017;51.230;-2.322;2022-12-20T13:29:22;15.10;;;4.05;;
65407;SDS011;52017;51.230;-2.322;2022-12-20T13:33:17;17.83;;;4.67;;
65407;SDS011;52017;51.230;-2.322;2022-12-20T13:37:23;19.58;;;5.10;;
65407;SDS011;52017;51.230;-2.322;2022-12-20T13:45:16;16.92;;;4.80;;
65407;SDS011;52017;51.230;-2.322;2022-12-20T13:49:00;19.40;;;5.35;;
65407;SDS011;52017;51.230;-2.322;2022-12-20T14:43:54;21.70;;;5.27;;
65407;SDS011;52017;51.230;-2.322;2022-12-20T14:48:00;31.60;;;5.47;;
65407;SDS011;52017;51.230;-2.322;2022-12-20T17:57:58;24.90;;;8.60;;
65407;SDS011;52017;51.230;-2.322;2022-12-20T18:01:42;34.13;;;10.53;;
65407;SDS011;52017;51.230;-2.322;2022-12-20T18:05:34;29.00;;;7.80;;
65407;SDS011;52017;51.230;-2.322;2022-12-20T18:09:21;24.57;;;7.53;;
65407;SDS011;52017;51.230;-2.322;2022-12-20T18:17:44;27.47;;;10.43;;
65407;SDS011;52017;51.230;-2.322;2022-12-20T18:25:42;36.03;;;11.83;;
65407;SDS011;52017;51.230;-2.322;2022-12-20T18:29:46;26.70;;;10.80;;
65407;SDS011;52017;51.230;-2.322;2022-12-20T18:34:33;27.13;;;11.83;;
65407;SDS011;52017;51.230;-2.322;2022-12-20T18:38:18;24.50;;;9.30;;
65407;SDS011;52017;51.230;-2.322;2022-12-20T18:46:19;33.90;;;9.10;;
65407;SDS011;52017;51.230;-2.322;2022-12-20T18:53:54;38.23;;;12.80;;
65407;SDS011;52017;51.230;-2.322;2022-12-20T18:57:50;30.33;;;13.97;;
65407;SDS011;52017;51.230;-2.322;2022-12-20T19:01:34;30.70;;;14.70;;
65407;SDS011;52017;51.230;-2.322;2022-12-20T19:05:27;34.70;;;10.10;;
65407;SDS011;52017;51.230;-2.322;2022-12-20T19:09:37;27.50;;;9.43;;
65407;SDS011;52017;51.230;-2.322;2022-12-20T19:13:43;26.57;;;10.53;;
65407;SDS011;52017;51.230;-2.322;2022-12-20T19:18:03;24.63;;;8.37;;
65407;SDS011;52017;51.230;-2.322;2022-12-20T19:21:48;26.70;;;9.43;;
65407;SDS011;52017;51.230;-2.322;2022-12-20T19:25:35;26.63;;;9.93;;
65407;SDS011;52017;51.230;-2.322;2022-12-20T19:29:35;24.17;;;9.83;;
65407;SDS011;52017;51.230;-2.322;2022-12-20T19:33:38;30.40;;;11.20;;
65407;SDS011;52017;51.230;-2.322;2022-12-20T19:37:36;28.60;;;10.57;;
65407;SDS011;52017;51.230;-2.322;2022-12-20T19:41:27;37.20;;;12.27;;
65407;SDS011;52017;51.230;-2.322;2022-12-20T19:45:28;27.23;;;9.83;;
65407;SDS011;52017;51.230;-2.322;2022-12-20T19:49:19;37.37;;;11.70;;
65407;SDS011;52017;51.230;-2.322;2022-12-20T19:53:24;32.07;;;12.97;;
65407;SDS011;52017;51.230;-2.322;2022-12-20T19:57:32;32.97;;;14.35;;
65407;SDS011;52017;51.230;-2.322;2022-12-20T20:01:39;44.63;;;16.10;;
65407;SDS011;52017;51.230;-2.322;2022-12-20T20:06:13;30.03;;;13.47;;
65407;SDS011;52017;51.230;-2.322;2022-12-20T20:10:12;29.00;;;9.23;;
65407;SDS011;52017;51.230;-2.322;2022-12-20T20:14:10;23.40;;;10.63;;
65407;SDS011;52017;51.230;-2.322;2022-12-20T20:18:10;27.83;;;11.13;;
65407;SDS011;52017;51.230;-2.322;2022-12-20T20:21:57;22.73;;;11.30;;
65407;SDS011;52017;51.230;-2.322;2022-12-20T20:25:52;22.40;;;12.67;;
65407;SDS011;52017;51.230;-2.322;2022-12-20T20:29:56;33.20;;;12.80;;
65407;SDS011;52017;51.230;-2.322;2022-12-20T20:34:01;25.87;;;10.23;;
65407;SDS011;52017;51.230;-2.322;2022-12-20T20:37:57;21.90;;;8.53;;
65407;SDS011;52017;51.230;-2.322;2022-12-20T20:41:49;30.27;;;9.83;;
65407;SDS011;52017;51.230;-2.322;2022-12-20T20:45:36;31.47;;;9.93;;
65407;SDS011;52017;51.230;-2.322;2022-12-20T20:49:26;127.20;;;60.80;;
65407;SDS011;52017;51.230;-2.322;2022-12-20T20:53:28;38.67;;;15.27;;
65407;SDS011;52017;51.230;-2.322;2022-12-20T21:01:20;30.23;;;8.90;;
65407;SDS011;52017;51.230;-2.322;2022-12-20T21:05:13;38.23;;;9.80;;
65407;SDS011;52017;51.230;-2.322;2022-12-20T21:09:19;113.97;;;74.13;;
65407;SDS011;52017;51.230;-2.322;2022-12-20T21:13:05;41.30;;;17.03;;
65407;SDS011;52017;51.230;-2.322;2022-12-20T21:16:47;50.97;;;23.00;;
65407;SDS011;52017;51.230;-2.322;2022-12-20T21:20:33;33.63;;;11.27;;
65407;SDS011;52017;51.230;-2.322;2022-12-20T21:24:17;30.53;;;10.00;;
65407;SDS011;52017;51.230;-2.322;2022-12-20T21:28:17;25.23;;;7.13;;
65407;SDS011;52017;51.230;-2.322;2022-12-20T21:32:01;27.10;;;7.70;;
65407;SDS011;52017;51.230;-2.322;2022-12-20T21:35:48;20.30;;;6.97;;
65407;SDS011;52017;51.230;-2.322;2022-12-20T21:39:34;26.73;;;6.47;;
65407;SDS011;52017;51.230;-2.322;2022-12-20T21:43:18;27.93;;;7.53;;
65407;SDS011;52017;51.230;-2.322;2022-12-20T21:47:07;28.80;;;7.93;;
65407;SDS011;52017;51.230;-2.322;2022-12-20T21:51:00;36.20;;;8.40;;
65407;SDS011;52017;51.230;-2.322;2022-12-20T21:54:50;29.93;;;8.73;;
65407;SDS011;52017;51.230;-2.322;2022-12-20T21:58:41;33.30;;;8.77;;
65407;SDS011;52017;51.230;-2.322;2022-12-20T22:02:33;30.80;;;8.37;;
65407;SDS011;52017;51.230;-2.322;2022-12-20T22:06:22;24.20;;;7.93;;
65407;SDS011;52017;51.230;-2.322;2022-12-20T22:10:24;23.97;;;7.57;;
65407;SDS011;52017;51.230;-2.322;2022-12-20T22:14:27;25.93;;;7.43;;
65407;SDS011;52017;51.230;-2.322;2022-12-20T22:18:26;23.33;;;7.27;;
65407;SDS011;52017;51.230;-2.322;2022-12-20T22:22:40;33.83;;;7.17;;
65407;SDS011;52017;51.230;-2.322;2022-12-20T22:26:38;29.43;;;6.90;;
65407;SDS011;52017;51.230;-2.322;2022-12-20T22:30:55;25.92;;;6.93;;
65407;SDS011;52017;51.230;-2.322;2022-12-20T22:34:44;30.40;;;8.57;;
65407;SDS011;52017;51.230;-2.322;2022-12-20T22:38:32;20.93;;;7.27;;
65407;SDS011;52017;51.230;-2.322;2022-12-20T22:42:37;24.30;;;6.70;;
65407;SDS011;52017;51.230;-2.322;2022-12-20T22:46:53;29.73;;;9.40;;
65407;SDS011;52017;51.230;-2.322;2022-12-20T22:50:44;28.00;;;6.80;;
65407;SDS011;52017;51.230;-2.322;2022-12-20T22:54:27;21.57;;;5.50;;
65407;SDS011;52017;51.230;-2.322;2022-12-20T22:58:10;34.50;;;18.80;;
65407;SDS011;52017;51.230;-2.322;2022-12-20T23:02:12;27.57;;;6.50;;
65407;SDS011;52017;51.230;-2.322;2022-12-20T23:10:55;25.13;;;5.80;;
65407;SDS011;52017;51.230;-2.322;2022-12-20T23:15:33;21.30;;;4.53;;
65407;SDS011;52017;51.230;-2.322;2022-12-20T23:19:51;20.83;;;5.30;;
65407;SDS011;52017;51.230;-2.322;2022-12-20T23:24:19;28.20;;;6.93;;
65407;SDS011;52017;51.230;-2.322;2022-12-20T23:28:23;24.13;;;5.70;;
65407;SDS011;52017;51.230;-2.322;2022-12-20T23:32:23;29.43;;;5.23;;
65407;SDS011;52017;51.230;-2.322;2022-12-20T23:36:11;25.00;;;6.27;;
65407;SDS011;52017;51.230;-2.322;2022-12-20T23:40:15;22.70;;;5.57;;
65407;SDS011;52017;51.230;-2.322;2022-12-20T23:44:05;33.27;;;6.23;;
65407;SDS011;52017;51.230;-2.322;2022-12-20T23:48:24;30.53;;;6.17;;
65407;SDS011;52017;51.230;-2.322;2022-12-20T23:52:47;23.33;;;4.83;;
65407;SDS011;52017;51.230;-2.322;2022-12-20T23:56:32;23.23;;;5.77;;
